LIH weather

Lismore Helibase
Lismore, New South Wales, Australia

Public forecast

Using degrees Celsius for public forecast. Weather courtesy of forecast.io.

METAR (pilot weather report)

Closest report is Lismore Airport, 2.3 nm (4.2 km) SW. Retrieved 2019/04/20 11:00 UTC (53 minutes ago):

YLIS 201100Z AUTO 00000KT 9999 // SCT066 BKN085 20/19 Q1023

TAF (pilot weather forecast)

Closest forecast is Gold Coast Airport, 39.9 nm (73.9 km) NNE. Retrieved 2019/04/20 06:00 UTC (6 hours ago):

TAF YBCG 200504Z 2006/2106 13014KT 9999 -SHRA FEW015 SCT025 BKN040 FM201200 15008KT 9999 -SHRA SCT015 SCT030 FM202300 12014KT 9999 -SHRA SCT020 SCT030 INTER 2006/2018 3000 SHRA BKN012